sensor_id;sensor_type;location;lat;lon;timestamp;P1;durP1;ratioP1;P2;durP2;ratioP2
62401;SDS011;48440;51.224;22.506;2023-02-03T00:01:58;5.82;;;3.20;;
62401;SDS011;48440;51.224;22.506;2023-02-03T00:04:27;7.45;;;3.20;;
62401;SDS011;48440;51.224;22.506;2023-02-03T00:06:52;7.47;;;3.53;;
62401;SDS011;48440;51.224;22.506;2023-02-03T00:09:18;8.43;;;3.75;;
62401;SDS011;48440;51.224;22.506;2023-02-03T00:11:44;7.35;;;3.92;;
62401;SDS011;48440;51.224;22.506;2023-02-03T00:14:09;6.53;;;3.40;;
62401;SDS011;48440;51.224;22.506;2023-02-03T00:16:35;7.10;;;3.47;;
62401;SDS011;48440;51.224;22.506;2023-02-03T00:19:00;9.77;;;3.58;;
62401;SDS011;48440;51.224;22.506;2023-02-03T00:21:26;8.82;;;3.83;;
62401;SDS011;48440;51.224;22.506;2023-02-03T00:23:52;7.22;;;3.92;;
62401;SDS011;48440;51.224;22.506;2023-02-03T00:26:18;5.90;;;3.35;;
62401;SDS011;48440;51.224;22.506;2023-02-03T00:28:45;9.43;;;3.80;;
62401;SDS011;48440;51.224;22.506;2023-02-03T00:31:15;10.90;;;3.40;;
62401;SDS011;48440;51.224;22.506;2023-02-03T00:33:47;5.72;;;3.28;;
62401;SDS011;48440;51.224;22.506;2023-02-03T00:36:18;8.30;;;3.55;;
62401;SDS011;48440;51.224;22.506;2023-02-03T00:38:43;7.63;;;3.30;;
62401;SDS011;48440;51.224;22.506;2023-02-03T00:41:09;5.32;;;3.60;;
62401;SDS011;48440;51.224;22.506;2023-02-03T00:43:34;8.35;;;3.53;;
62401;SDS011;48440;51.224;22.506;2023-02-03T00:45:59;7.95;;;3.97;;
62401;SDS011;48440;51.224;22.506;2023-02-03T00:48:28;7.15;;;4.55;;
62401;SDS011;48440;51.224;22.506;2023-02-03T00:50:55;9.27;;;3.90;;
62401;SDS011;48440;51.224;22.506;2023-02-03T00:53:21;8.13;;;3.97;;
62401;SDS011;48440;51.224;22.506;2023-02-03T00:55:46;7.13;;;3.40;;
62401;SDS011;48440;51.224;22.506;2023-02-03T00:58:12;8.32;;;4.35;;
62401;SDS011;48440;51.224;22.506;2023-02-03T01:00:38;9.52;;;3.63;;
62401;SDS011;48440;51.224;22.506;2023-02-03T01:03:03;8.23;;;3.67;;
62401;SDS011;48440;51.224;22.506;2023-02-03T01:05:29;8.75;;;3.83;;
62401;SDS011;48440;51.224;22.506;2023-02-03T01:07:54;6.95;;;3.58;;
62401;SDS011;48440;51.224;22.506;2023-02-03T01:10:20;9.57;;;3.88;;
62401;SDS011;48440;51.224;22.506;2023-02-03T01:12:45;5.90;;;4.13;;
62401;SDS011;48440;51.224;22.506;2023-02-03T01:15:11;7.47;;;3.92;;
62401;SDS011;48440;51.224;22.506;2023-02-03T01:17:36;7.05;;;3.92;;
62401;SDS011;48440;51.224;22.506;2023-02-03T01:20:02;10.05;;;4.32;;
62401;SDS011;48440;51.224;22.506;2023-02-03T01:22:29;10.50;;;4.50;;
62401;SDS011;48440;51.224;22.506;2023-02-03T01:24:54;5.57;;;4.10;;
62401;SDS011;48440;51.224;22.506;2023-02-03T01:27:20;6.05;;;3.92;;
62401;SDS011;48440;51.224;22.506;2023-02-03T01:29:46;7.47;;;4.32;;
62401;SDS011;48440;51.224;22.506;2023-02-03T01:32:11;6.70;;;4.30;;
62401;SDS011;48440;51.224;22.506;2023-02-03T01:34:37;6.70;;;3.90;;
62401;SDS011;48440;51.224;22.506;2023-02-03T01:37:02;7.70;;;4.25;;
62401;SDS011;48440;51.224;22.506;2023-02-03T01:39:28;7.53;;;4.47;;
62401;SDS011;48440;51.224;22.506;2023-02-03T01:41:54;9.90;;;4.72;;
62401;SDS011;48440;51.224;22.506;2023-02-03T01:47:23;8.10;;;3.97;;
62401;SDS011;48440;51.224;22.506;2023-02-03T01:52:24;5.63;;;3.80;;
62401;SDS011;48440;51.224;22.506;2023-02-03T01:54:51;7.95;;;4.10;;
62401;SDS011;48440;51.224;22.506;2023-02-03T01:57:26;11.05;;;4.40;;
62401;SDS011;48440;51.224;22.506;2023-02-03T02:00:11;7.88;;;4.50;;
62401;SDS011;48440;51.224;22.506;2023-02-03T02:02:37;10.05;;;4.40;;
62401;SDS011;48440;51.224;22.506;2023-02-03T02:05:11;8.77;;;4.45;;
62401;SDS011;48440;51.224;22.506;2023-02-03T02:07:57;8.68;;;4.30;;
62401;SDS011;48440;51.224;22.506;2023-02-03T02:10:25;7.75;;;4.15;;
62401;SDS011;48440;51.224;22.506;2023-02-03T02:12:53;7.53;;;4.07;;
62401;SDS011;48440;51.224;22.506;2023-02-03T02:15:21;6.43;;;4.10;;
62401;SDS011;48440;51.224;22.506;2023-02-03T02:18:02;9.88;;;3.60;;
62401;SDS011;48440;51.224;22.506;2023-02-03T02:26:29;6.78;;;4.00;;
62401;SDS011;48440;51.224;22.506;2023-02-03T02:31:49;7.00;;;3.92;;
62401;SDS011;48440;51.224;22.506;2023-02-03T02:37:06;7.15;;;4.22;;
62401;SDS011;48440;51.224;22.506;2023-02-03T02:39:49;8.27;;;4.18;;
62401;SDS011;48440;51.224;22.506;2023-02-03T02:44:52;7.40;;;4.40;;
62401;SDS011;48440;51.224;22.506;2023-02-03T02:47:23;7.63;;;4.47;;
62401;SDS011;48440;51.224;22.506;2023-02-03T02:55:02;6.47;;;3.90;;
62401;SDS011;48440;51.224;22.506;2023-02-03T02:57:35;7.25;;;3.80;;
62401;SDS011;48440;51.224;22.506;2023-02-03T03:00:03;6.90;;;3.88;;
62401;SDS011;48440;51.224;22.506;2023-02-03T03:02:31;6.55;;;3.70;;
62401;SDS011;48440;51.224;22.506;2023-02-03T03:04:59;7.97;;;4.15;;
62401;SDS011;48440;51.224;22.506;2023-02-03T03:07:25;7.57;;;4.00;;
62401;SDS011;48440;51.224;22.506;2023-02-03T03:09:56;8.55;;;3.75;;
62401;SDS011;48440;51.224;22.506;2023-02-03T03:12:29;6.13;;;3.55;;
62401;SDS011;48440;51.224;22.506;2023-02-03T03:15:10;4.93;;;3.53;;
62401;SDS011;48440;51.224;22.506;2023-02-03T03:17:41;5.57;;;3.65;;
62401;SDS011;48440;51.224;22.506;2023-02-03T03:20:16;5.80;;;3.53;;
62401;SDS011;48440;51.224;22.506;2023-02-03T03:22:51;5.47;;;3.30;;
62401;SDS011;48440;51.224;22.506;2023-02-03T03:25:48;5.25;;;3.28;;
62401;SDS011;48440;51.224;22.506;2023-02-03T03:28:27;4.43;;;3.20;;
62401;SDS011;48440;51.224;22.506;2023-02-03T03:31:01;8.30;;;4.20;;
62401;SDS011;48440;51.224;22.506;2023-02-03T03:33:26;5.43;;;3.63;;
62401;SDS011;48440;51.224;22.506;2023-02-03T03:38:38;7.93;;;3.70;;
62401;SDS011;48440;51.224;22.506;2023-02-03T03:41:14;9.82;;;4.60;;
62401;SDS011;48440;51.224;22.506;2023-02-03T03:43:48;6.63;;;3.67;;
62401;SDS011;48440;51.224;22.506;2023-02-03T03:46:20;7.90;;;4.43;;
62401;SDS011;48440;51.224;22.506;2023-02-03T03:48:53;8.45;;;4.55;;
62401;SDS011;48440;51.224;22.506;2023-02-03T03:53:55;6.85;;;4.00;;
62401;SDS011;48440;51.224;22.506;2023-02-03T03:56:28;8.95;;;4.55;;
62401;SDS011;48440;51.224;22.506;2023-02-03T03:58:58;6.43;;;3.47;;
62401;SDS011;48440;51.224;22.506;2023-02-03T04:01:26;6.70;;;4.07;;
62401;SDS011;48440;51.224;22.506;2023-02-03T04:03:55;7.40;;;4.00;;
62401;SDS011;48440;51.224;22.506;2023-02-03T04:06:26;6.63;;;4.05;;
62401;SDS011;48440;51.224;22.506;2023-02-03T04:08:51;7.25;;;3.55;;
62401;SDS011;48440;51.224;22.506;2023-02-03T04:11:17;8.20;;;3.67;;
62401;SDS011;48440;51.224;22.506;2023-02-03T04:14:01;6.80;;;3.58;;
62401;SDS011;48440;51.224;22.506;2023-02-03T04:16:27;7.00;;;4.45;;
62401;SDS011;48440;51.224;22.506;2023-02-03T04:18:52;7.25;;;4.55;;
62401;SDS011;48440;51.224;22.506;2023-02-03T04:21:18;11.15;;;4.88;;
62401;SDS011;48440;51.224;22.506;2023-02-03T04:23:43;8.02;;;5.05;;
62401;SDS011;48440;51.224;22.506;2023-02-03T04:26:09;9.07;;;4.97;;
62401;SDS011;48440;51.224;22.506;2023-02-03T04:28:34;10.77;;;5.60;;
62401;SDS011;48440;51.224;22.506;2023-02-03T04:31:00;8.50;;;4.75;;
62401;SDS011;48440;51.224;22.506;2023-02-03T04:33:26;10.35;;;5.20;;
62401;SDS011;48440;51.224;22.506;2023-02-03T04:35:51;11.73;;;5.05;;
62401;SDS011;48440;51.224;22.506;2023-02-03T04:38:17;11.02;;;5.63;;
62401;SDS011;48440;51.224;22.506;2023-02-03T04:40:42;12.00;;;5.78;;
62401;SDS011;48440;51.224;22.506;2023-02-03T04:43:09;10.02;;;5.90;;
62401;SDS011;48440;51.224;22.506;2023-02-03T04:45:36;12.23;;;6.25;;
62401;SDS011;48440;51.224;22.506;2023-02-03T04:48:02;12.88;;;6.38;;
62401;SDS011;48440;51.224;22.506;2023-02-03T04:50:29;11.43;;;6.68;;
62401;SDS011;48440;51.224;22.506;2023-02-03T04:52:55;14.43;;;6.85;;
62401;SDS011;48440;51.224;22.506;2023-02-03T04:55:24;9.02;;;6.13;;
62401;SDS011;48440;51.224;22.506;2023-02-03T04:57:53;11.35;;;6.05;;
62401;SDS011;48440;51.224;22.506;2023-02-03T05:00:22;14.82;;;6.47;;
62401;SDS011;48440;51.224;22.506;2023-02-03T05:02:47;10.60;;;6.70;;
62401;SDS011;48440;51.224;22.506;2023-02-03T05:05:13;11.82;;;5.70;;
62401;SDS011;48440;51.224;22.506;2023-02-03T05:07:38;8.57;;;5.30;;
62401;SDS011;48440;51.224;22.506;2023-02-03T05:10:04;9.57;;;5.30;;
62401;SDS011;48440;51.224;22.506;2023-02-03T05:12:30;8.07;;;4.45;;
62401;SDS011;48440;51.224;22.506;2023-02-03T05:14:55;8.55;;;4.15;;
62401;SDS011;48440;51.224;22.506;2023-02-03T05:17:21;7.72;;;4.20;;
62401;SDS011;48440;51.224;22.506;2023-02-03T05:19:46;7.68;;;4.30;;
62401;SDS011;48440;51.224;22.506;2023-02-03T05:22:15;7.50;;;4.25;;
62401;SDS011;48440;51.224;22.506;2023-02-03T05:24:40;5.88;;;3.70;;
62401;SDS011;48440;51.224;22.506;2023-02-03T05:27:05;7.93;;;3.60;;
62401;SDS011;48440;51.224;22.506;2023-02-03T05:29:31;9.18;;;4.15;;
62401;SDS011;48440;51.224;22.506;2023-02-03T05:31:56;7.40;;;4.28;;
62401;SDS011;48440;51.224;22.506;2023-02-03T05:34:22;7.70;;;4.20;;
62401;SDS011;48440;51.224;22.506;2023-02-03T05:36:48;7.50;;;4.43;;
62401;SDS011;48440;51.224;22.506;2023-02-03T05:39:13;5.57;;;3.67;;
62401;SDS011;48440;51.224;22.506;2023-02-03T05:41:39;6.68;;;4.10;;
62401;SDS011;48440;51.224;22.506;2023-02-03T05:44:16;8.32;;;4.13;;
62401;SDS011;48440;51.224;22.506;2023-02-03T05:46:51;9.82;;;3.72;;
62401;SDS011;48440;51.224;22.506;2023-02-03T05:49:17;7.07;;;3.65;;
62401;SDS011;48440;51.224;22.506;2023-02-03T05:51:44;7.03;;;3.30;;
62401;SDS011;48440;51.224;22.506;2023-02-03T05:54:10;6.85;;;3.28;;
62401;SDS011;48440;51.224;22.506;2023-02-03T05:56:36;5.85;;;3.42;;
62401;SDS011;48440;51.224;22.506;2023-02-03T05:59:02;5.45;;;3.17;;
62401;SDS011;48440;51.224;22.506;2023-02-03T06:01:29;4.30;;;3.08;;
62401;SDS011;48440;51.224;22.506;2023-02-03T06:03:55;6.07;;;3.30;;
62401;SDS011;48440;51.224;22.506;2023-02-03T06:06:20;6.68;;;3.85;;
62401;SDS011;48440;51.224;22.506;2023-02-03T06:08:46;5.63;;;3.10;;
62401;SDS011;48440;51.224;22.506;2023-02-03T06:11:12;3.90;;;2.85;;
62401;SDS011;48440;51.224;22.506;2023-02-03T06:13:37;5.25;;;3.47;;
62401;SDS011;48440;51.224;22.506;2023-02-03T06:16:03;5.65;;;3.08;;
62401;SDS011;48440;51.224;22.506;2023-02-03T06:18:28;6.82;;;4.10;;
62401;SDS011;48440;51.224;22.506;2023-02-03T06:20:54;7.82;;;3.50;;
62401;SDS011;48440;51.224;22.506;2023-02-03T06:23:19;5.28;;;3.08;;
62401;SDS011;48440;51.224;22.506;2023-02-03T06:25:48;5.97;;;3.20;;
62401;SDS011;48440;51.224;22.506;2023-02-03T06:28:15;4.07;;;2.85;;
62401;SDS011;48440;51.224;22.506;2023-02-03T06:30:41;5.57;;;2.90;;
62401;SDS011;48440;51.224;22.506;2023-02-03T06:33:07;7.18;;;3.45;;
62401;SDS011;48440;51.224;22.506;2023-02-03T06:35:33;7.05;;;4.18;;
62401;SDS011;48440;51.224;22.506;2023-02-03T06:38:01;6.50;;;3.65;;
62401;SDS011;48440;51.224;22.506;2023-02-03T06:40:26;7.28;;;4.30;;
62401;SDS011;48440;51.224;22.506;2023-02-03T06:42:52;6.18;;;3.47;;
62401;SDS011;48440;51.224;22.506;2023-02-03T06:45:17;8.20;;;3.40;;
62401;SDS011;48440;51.224;22.506;2023-02-03T06:47:44;5.65;;;3.00;;
62401;SDS011;48440;51.224;22.506;2023-02-03T06:50:15;5.07;;;3.08;;
62401;SDS011;48440;51.224;22.506;2023-02-03T06:52:39;6.38;;;3.85;;
62401;SDS011;48440;51.224;22.506;2023-02-03T06:55:05;6.55;;;3.20;;
62401;SDS011;48440;51.224;22.506;2023-02-03T06:57:32;7.45;;;3.28;;
62401;SDS011;48440;51.224;22.506;2023-02-03T06:59:57;6.93;;;3.40;;
62401;SDS011;48440;51.224;22.506;2023-02-03T07:02:23;8.48;;;3.28;;
62401;SDS011;48440;51.224;22.506;2023-02-03T07:04:48;5.97;;;2.58;;
62401;SDS011;48440;51.224;22.506;2023-02-03T07:07:14;5.10;;;3.20;;
62401;SDS011;48440;51.224;22.506;2023-02-03T07:09:40;6.15;;;2.72;;
62401;SDS011;48440;51.224;22.506;2023-02-03T07:12:06;5.45;;;2.55;;
62401;SDS011;48440;51.224;22.506;2023-02-03T07:14:33;4.57;;;2.50;;
62401;SDS011;48440;51.224;22.506;2023-02-03T07:17:03;5.22;;;2.50;;
62401;SDS011;48440;51.224;22.506;2023-02-03T07:19:30;6.63;;;2.92;;
62401;SDS011;48440;51.224;22.506;2023-02-03T07:21:55;5.93;;;2.80;;
62401;SDS011;48440;51.224;22.506;2023-02-03T07:24:21;5.35;;;2.65;;
62401;SDS011;48440;51.224;22.506;2023-02-03T07:26:46;4.40;;;2.40;;
62401;SDS011;48440;51.224;22.506;2023-02-03T07:29:12;5.85;;;3.10;;
62401;SDS011;48440;51.224;22.506;2023-02-03T07:31:38;7.00;;;2.85;;
62401;SDS011;48440;51.224;22.506;2023-02-03T07:34:03;9.02;;;3.38;;
62401;SDS011;48440;51.224;22.506;2023-02-03T07:36:31;6.50;;;2.67;;
62401;SDS011;48440;51.224;22.506;2023-02-03T07:38:58;5.40;;;3.03;;
62401;SDS011;48440;51.224;22.506;2023-02-03T07:41:23;8.07;;;3.15;;
62401;SDS011;48440;51.224;22.506;2023-02-03T07:43:49;6.38;;;2.75;;
62401;SDS011;48440;51.224;22.506;2023-02-03T07:46:14;8.30;;;3.13;;
62401;SDS011;48440;51.224;22.506;2023-02-03T07:48:40;5.40;;;3.15;;
62401;SDS011;48440;51.224;22.506;2023-02-03T07:51:06;5.22;;;2.78;;
62401;SDS011;48440;51.224;22.506;2023-02-03T07:53:32;7.25;;;2.85;;
62401;SDS011;48440;51.224;22.506;2023-02-03T07:56:01;6.45;;;2.92;;
62401;SDS011;48440;51.224;22.506;2023-02-03T07:58:28;7.20;;;3.00;;
62401;SDS011;48440;51.224;22.506;2023-02-03T08:00:57;3.35;;;1.95;;
62401;SDS011;48440;51.224;22.506;2023-02-03T08:03:23;3.70;;;2.22;;
62401;SDS011;48440;51.224;22.506;2023-02-03T08:05:48;8.27;;;2.95;;
62401;SDS011;48440;51.224;22.506;2023-02-03T08:08:14;11.85;;;3.60;;
62401;SDS011;48440;51.224;22.506;2023-02-03T08:10:40;6.93;;;3.60;;
62401;SDS011;48440;51.224;22.506;2023-02-03T08:13:05;10.52;;;4.05;;
62401;SDS011;48440;51.224;22.506;2023-02-03T08:15:30;5.88;;;2.63;;
62401;SDS011;48440;51.224;22.506;2023-02-03T08:17:56;4.78;;;2.55;;
62401;SDS011;48440;51.224;22.506;2023-02-03T08:20:21;3.97;;;1.88;;
62401;SDS011;48440;51.224;22.506;2023-02-03T08:22:47;4.18;;;2.00;;
62401;SDS011;48440;51.224;22.506;2023-02-03T08:25:13;4.78;;;1.52;;
62401;SDS011;48440;51.224;22.506;2023-02-03T08:27:38;3.03;;;1.20;;
62401;SDS011;48440;51.224;22.506;2023-02-03T08:30:05;2.35;;;1.30;;
62401;SDS011;48440;51.224;22.506;2023-02-03T08:32:32;4.53;;;1.40;;
62401;SDS011;48440;51.224;22.506;2023-02-03T08:34:59;1.58;;;1.08;;
62401;SDS011;48440;51.224;22.506;2023-02-03T08:37:24;2.75;;;1.05;;
62401;SDS011;48440;51.224;22.506;2023-02-03T08:39:50;1.85;;;1.17;;
62401;SDS011;48440;51.224;22.506;2023-02-03T08:42:16;2.80;;;1.00;;
62401;SDS011;48440;51.224;22.506;2023-02-03T08:44:42;1.85;;;1.10;;
62401;SDS011;48440;51.224;22.506;2023-02-03T08:47:08;2.28;;;1.20;;
62401;SDS011;48440;51.224;22.506;2023-02-03T08:49:34;3.00;;;1.10;;
62401;SDS011;48440;51.224;22.506;2023-02-03T08:52:03;2.15;;;1.00;;
62401;SDS011;48440;51.224;22.506;2023-02-03T08:54:30;1.80;;;1.05;;
62401;SDS011;48440;51.224;22.506;2023-02-03T08:56:56;3.17;;;1.20;;
62401;SDS011;48440;51.224;22.506;2023-02-03T08:59:21;3.47;;;1.48;;
62401;SDS011;48440;51.224;22.506;2023-02-03T09:01:47;4.95;;;1.92;;
62401;SDS011;48440;51.224;22.506;2023-02-03T09:04:13;4.40;;;1.50;;
62401;SDS011;48440;51.224;22.506;2023-02-03T09:06:43;4.05;;;2.08;;
62401;SDS011;48440;51.224;22.506;2023-02-03T09:09:14;5.60;;;2.05;;
62401;SDS011;48440;51.224;22.506;2023-02-03T09:11:40;5.07;;;2.50;;
62401;SDS011;48440;51.224;22.506;2023-02-03T09:14:06;4.13;;;2.25;;
62401;SDS011;48440;51.224;22.506;2023-02-03T09:16:32;5.43;;;2.30;;
62401;SDS011;48440;51.224;22.506;2023-02-03T09:18:58;6.10;;;2.72;;
62401;SDS011;48440;51.224;22.506;2023-02-03T09:21:23;4.78;;;2.10;;
62401;SDS011;48440;51.224;22.506;2023-02-03T09:23:49;5.28;;;2.28;;
62401;SDS011;48440;51.224;22.506;2023-02-03T09:26:14;3.30;;;1.70;;
62401;SDS011;48440;51.224;22.506;2023-02-03T09:28:40;3.35;;;1.90;;
62401;SDS011;48440;51.224;22.506;2023-02-03T09:31:07;4.93;;;1.77;;
62401;SDS011;48440;51.224;22.506;2023-02-03T09:33:37;4.25;;;2.33;;
62401;SDS011;48440;51.224;22.506;2023-02-03T09:36:03;5.78;;;2.13;;
62401;SDS011;48440;51.224;22.506;2023-02-03T09:38:30;3.42;;;1.50;;
62401;SDS011;48440;51.224;22.506;2023-02-03T09:41:04;3.00;;;1.27;;
62401;SDS011;48440;51.224;22.506;2023-02-03T09:43:45;3.72;;;1.30;;
62401;SDS011;48440;51.224;22.506;2023-02-03T09:46:23;3.00;;;1.02;;
62401;SDS011;48440;51.224;22.506;2023-02-03T09:48:53;2.88;;;1.17;;
62401;SDS011;48440;51.224;22.506;2023-02-03T09:51:26;2.78;;;1.25;;
62401;SDS011;48440;51.224;22.506;2023-02-03T09:53:58;3.03;;;1.50;;
62401;SDS011;48440;51.224;22.506;2023-02-03T09:56:30;2.85;;;1.20;;
62401;SDS011;48440;51.224;22.506;2023-02-03T09:59:00;2.60;;;1.20;;
62401;SDS011;48440;51.224;22.506;2023-02-03T10:01:37;3.17;;;1.42;;
62401;SDS011;48440;51.224;22.506;2023-02-03T10:06:52;2.22;;;1.23;;
62401;SDS011;48440;51.224;22.506;2023-02-03T10:22:24;3.25;;;1.55;;
62401;SDS011;48440;51.224;22.506;2023-02-03T10:27:19;3.38;;;1.55;;
62401;SDS011;48440;51.224;22.506;2023-02-03T10:30:01;3.20;;;2.05;;
62401;SDS011;48440;51.224;22.506;2023-02-03T10:32:29;2.03;;;1.50;;
62401;SDS011;48440;51.224;22.506;2023-02-03T10:34:54;5.38;;;1.55;;
62401;SDS011;48440;51.224;22.506;2023-02-03T10:37:54;3.80;;;1.40;;
62401;SDS011;48440;51.224;22.506;2023-02-03T10:40:14;3.63;;;1.60;;
62401;SDS011;48440;51.224;22.506;2023-02-03T10:42:42;3.60;;;1.70;;
62401;SDS011;48440;51.224;22.506;2023-02-03T10:45:30;3.20;;;1.63;;
62401;SDS011;48440;51.224;22.506;2023-02-03T10:48:00;5.57;;;1.90;;
62401;SDS011;48440;51.224;22.506;2023-02-03T10:50:28;2.67;;;1.58;;
62401;SDS011;48440;51.224;22.506;2023-02-03T10:58:31;3.25;;;1.90;;
62401;SDS011;48440;51.224;22.506;2023-02-03T11:01:08;5.15;;;2.30;;
62401;SDS011;48440;51.224;22.506;2023-02-03T11:03:37;4.72;;;1.80;;
62401;SDS011;48440;51.224;22.506;2023-02-03T11:06:14;3.17;;;1.95;;
62401;SDS011;48440;51.224;22.506;2023-02-03T11:08:44;5.25;;;1.92;;
62401;SDS011;48440;51.224;22.506;2023-02-03T11:11:19;4.25;;;2.13;;
62401;SDS011;48440;51.224;22.506;2023-02-03T11:16:27;3.15;;;1.88;;
62401;SDS011;48440;51.224;22.506;2023-02-03T11:21:42;3.38;;;1.73;;
62401;SDS011;48440;51.224;22.506;2023-02-03T11:24:19;5.00;;;2.15;;
62401;SDS011;48440;51.224;22.506;2023-02-03T11:26:53;4.47;;;1.90;;
62401;SDS011;48440;51.224;22.506;2023-02-03T11:31:51;6.90;;;2.67;;
62401;SDS011;48440;51.224;22.506;2023-02-03T11:34:19;6.55;;;3.05;;
62401;SDS011;48440;51.224;22.506;2023-02-03T11:36:49;6.88;;;2.83;;
62401;SDS011;48440;51.224;22.506;2023-02-03T11:41:46;5.90;;;2.55;;
62401;SDS011;48440;51.224;22.506;2023-02-03T11:44:16;7.45;;;3.15;;
62401;SDS011;48440;51.224;22.506;2023-02-03T11:46:44;4.68;;;2.60;;
62401;SDS011;48440;51.224;22.506;2023-02-03T11:49:25;5.88;;;2.20;;
62401;SDS011;48440;51.224;22.506;2023-02-03T11:52:05;4.13;;;2.28;;
62401;SDS011;48440;51.224;22.506;2023-02-03T12:17:10;4.55;;;2.50;;
62401;SDS011;48440;51.224;22.506;2023-02-03T12:28:07;5.05;;;3.33;;
62401;SDS011;48440;51.224;22.506;2023-02-03T12:30:43;7.97;;;3.30;;
62401;SDS011;48440;51.224;22.506;2023-02-03T12:33:19;7.63;;;3.40;;
62401;SDS011;48440;51.224;22.506;2023-02-03T12:35:54;9.18;;;3.50;;
62401;SDS011;48440;51.224;22.506;2023-02-03T12:39:04;5.70;;;3.10;;
62401;SDS011;48440;51.224;22.506;2023-02-03T12:44:00;7.70;;;3.35;;
62401;SDS011;48440;51.224;22.506;2023-02-03T12:46:36;6.63;;;2.90;;
62401;SDS011;48440;51.224;22.506;2023-02-03T12:51:51;7.53;;;3.40;;
62401;SDS011;48440;51.224;22.506;2023-02-03T12:54:43;7.22;;;2.90;;
62401;SDS011;48440;51.224;22.506;2023-02-03T12:57:16;5.78;;;3.10;;
62401;SDS011;48440;51.224;22.506;2023-02-03T13:02:35;7.45;;;3.35;;
62401;SDS011;48440;51.224;22.506;2023-02-03T13:07:57;8.05;;;3.92;;
62401;SDS011;48440;51.224;22.506;2023-02-03T13:10:35;7.20;;;3.70;;
62401;SDS011;48440;51.224;22.506;2023-02-03T13:13:09;10.40;;;3.60;;
62401;SDS011;48440;51.224;22.506;2023-02-03T13:15:39;7.57;;;3.63;;
62401;SDS011;48440;51.224;22.506;2023-02-03T13:18:14;8.52;;;3.70;;
62401;SDS011;48440;51.224;22.506;2023-02-03T13:20:50;6.28;;;3.40;;
62401;SDS011;48440;51.224;22.506;2023-02-03T13:23:17;7.93;;;3.92;;
62401;SDS011;48440;51.224;22.506;2023-02-03T13:29:01;10.93;;;3.60;;
62401;SDS011;48440;51.224;22.506;2023-02-03T13:35:02;9.60;;;4.05;;
62401;SDS011;48440;51.224;22.506;2023-02-03T13:39:54;12.05;;;4.63;;
62401;SDS011;48440;51.224;22.506;2023-02-03T13:42:27;9.57;;;4.47;;
62401;SDS011;48440;51.224;22.506;2023-02-03T13:44:56;7.53;;;4.20;;
62401;SDS011;48440;51.224;22.506;2023-02-03T13:47:37;9.32;;;4.38;;
62401;SDS011;48440;51.224;22.506;2023-02-03T13:50:04;7.95;;;3.65;;
62401;SDS011;48440;51.224;22.506;2023-02-03T13:52:43;9.75;;;4.38;;
62401;SDS011;48440;51.224;22.506;2023-02-03T13:55:24;10.85;;;4.57;;
62401;SDS011;48440;51.224;22.506;2023-02-03T13:57:56;10.55;;;3.95;;
62401;SDS011;48440;51.224;22.506;2023-02-03T14:03:16;8.50;;;3.88;;
62401;SDS011;48440;51.224;22.506;2023-02-03T14:05:46;11.43;;;3.80;;
62401;SDS011;48440;51.224;22.506;2023-02-03T14:19:56;8.18;;;3.97;;
62401;SDS011;48440;51.224;22.506;2023-02-03T14:22:22;11.43;;;4.20;;
62401;SDS011;48440;51.224;22.506;2023-02-03T14:24:47;9.80;;;4.45;;
62401;SDS011;48440;51.224;22.506;2023-02-03T14:27:35;20.67;;;4.72;;
62401;SDS011;48440;51.224;22.506;2023-02-03T14:30:03;8.18;;;4.57;;
62401;SDS011;48440;51.224;22.506;2023-02-03T14:35:16;9.55;;;4.90;;
62401;SDS011;48440;51.224;22.506;2023-02-03T14:37:56;8.65;;;4.32;;
62401;SDS011;48440;51.224;22.506;2023-02-03T14:51:52;13.65;;;5.43;;
62401;SDS011;48440;51.224;22.506;2023-02-03T14:54:52;9.10;;;4.32;;
62401;SDS011;48440;51.224;22.506;2023-02-03T15:00:24;8.13;;;4.90;;
62401;SDS011;48440;51.224;22.506;2023-02-03T15:05:42;11.10;;;4.40;;
62401;SDS011;48440;51.224;22.506;2023-02-03T15:10:57;11.68;;;4.68;;
62401;SDS011;48440;51.224;22.506;2023-02-03T15:13:26;9.38;;;4.60;;
62401;SDS011;48440;51.224;22.506;2023-02-03T15:15:54;10.60;;;5.38;;
62401;SDS011;48440;51.224;22.506;2023-02-03T15:18:33;9.65;;;4.72;;
62401;SDS011;48440;51.224;22.506;2023-02-03T15:21:05;12.18;;;5.18;;
62401;SDS011;48440;51.224;22.506;2023-02-03T15:23:38;12.55;;;5.88;;
62401;SDS011;48440;51.224;22.506;2023-02-03T15:26:11;15.35;;;6.07;;
62401;SDS011;48440;51.224;22.506;2023-02-03T15:28:42;12.60;;;5.38;;
62401;SDS011;48440;51.224;22.506;2023-02-03T15:33:45;10.85;;;5.70;;
62401;SDS011;48440;51.224;22.506;2023-02-03T15:36:19;13.35;;;5.78;;
62401;SDS011;48440;51.224;22.506;2023-02-03T15:38:54;12.52;;;5.82;;
62401;SDS011;48440;51.224;22.506;2023-02-03T15:41:24;12.70;;;5.25;;
62401;SDS011;48440;51.224;22.506;2023-02-03T15:43:55;12.07;;;5.32;;
62401;SDS011;48440;51.224;22.506;2023-02-03T15:51:45;11.05;;;5.07;;
62401;SDS011;48440;51.224;22.506;2023-02-03T15:54:21;12.10;;;4.68;;
62401;SDS011;48440;51.224;22.506;2023-02-03T15:57:03;9.57;;;4.60;;
62401;SDS011;48440;51.224;22.506;2023-02-03T15:59:38;12.60;;;5.60;;
62401;SDS011;48440;51.224;22.506;2023-02-03T16:02:16;10.23;;;5.25;;
62401;SDS011;48440;51.224;22.506;2023-02-03T16:04:45;10.45;;;4.95;;
62401;SDS011;48440;51.224;22.506;2023-02-03T16:07:19;11.85;;;5.07;;
62401;SDS011;48440;51.224;22.506;2023-02-03T16:09:50;13.65;;;4.80;;
62401;SDS011;48440;51.224;22.506;2023-02-03T16:12:26;9.13;;;4.63;;
62401;SDS011;48440;51.224;22.506;2023-02-03T16:14:54;11.38;;;5.22;;
62401;SDS011;48440;51.224;22.506;2023-02-03T16:22:41;9.75;;;5.03;;
62401;SDS011;48440;51.224;22.506;2023-02-03T16:25:19;14.50;;;5.70;;
62401;SDS011;48440;51.224;22.506;2023-02-03T16:27:57;11.50;;;5.22;;
62401;SDS011;48440;51.224;22.506;2023-02-03T16:33:46;10.18;;;5.50;;
62401;SDS011;48440;51.224;22.506;2023-02-03T16:36:31;11.63;;;5.63;;
62401;SDS011;48440;51.224;22.506;2023-02-03T16:39:16;9.95;;;5.43;;
62401;SDS011;48440;51.224;22.506;2023-02-03T16:42:05;10.52;;;5.18;;
62401;SDS011;48440;51.224;22.506;2023-02-03T16:44:56;10.05;;;5.78;;
62401;SDS011;48440;51.224;22.506;2023-02-03T16:47:40;10.93;;;6.03;;
62401;SDS011;48440;51.224;22.506;2023-02-03T16:50:26;13.60;;;5.97;;
62401;SDS011;48440;51.224;22.506;2023-02-03T16:53:16;12.90;;;6.35;;
62401;SDS011;48440;51.224;22.506;2023-02-03T16:55:44;14.35;;;6.10;;
62401;SDS011;48440;51.224;22.506;2023-02-03T16:58:10;12.23;;;5.70;;
62401;SDS011;48440;51.224;22.506;2023-02-03T17:00:37;12.90;;;5.43;;
62401;SDS011;48440;51.224;22.506;2023-02-03T17:03:07;12.38;;;6.10;;
62401;SDS011;48440;51.224;22.506;2023-02-03T17:05:36;9.00;;;5.47;;
62401;SDS011;48440;51.224;22.506;2023-02-03T17:08:03;13.00;;;5.95;;
62401;SDS011;48440;51.224;22.506;2023-02-03T17:10:28;10.85;;;5.90;;
62401;SDS011;48440;51.224;22.506;2023-02-03T17:12:54;13.07;;;7.03;;
62401;SDS011;48440;51.224;22.506;2023-02-03T17:15:19;14.68;;;6.68;;
62401;SDS011;48440;51.224;22.506;2023-02-03T17:17:45;13.52;;;6.53;;
62401;SDS011;48440;51.224;22.506;2023-02-03T17:20:11;15.93;;;7.03;;
62401;SDS011;48440;51.224;22.506;2023-02-03T17:22:36;18.42;;;9.02;;
62401;SDS011;48440;51.224;22.506;2023-02-03T17:25:02;18.58;;;9.32;;
62401;SDS011;48440;51.224;22.506;2023-02-03T17:27:28;22.35;;;9.52;;
62401;SDS011;48440;51.224;22.506;2023-02-03T17:29:53;26.05;;;10.60;;
62401;SDS011;48440;51.224;22.506;2023-02-03T17:32:19;23.58;;;10.52;;
62401;SDS011;48440;51.224;22.506;2023-02-03T17:34:45;22.52;;;10.13;;